sensor_id;sensor_type;location;lat;lon;timestamp;pressure;altitude;pressure_sealevel;temperature
66113;BMP280;52893;52.870;5.822;2024-03-02T00:00:31;99747.25;;;9.36
66113;BMP280;52893;52.870;5.822;2024-03-02T00:02:59;99744.06;;;9.34
66113;BMP280;52893;52.870;5.822;2024-03-02T00:05:26;99750.00;;;9.36
66113;BMP280;52893;52.870;5.822;2024-03-02T00:07:56;99746.00;;;9.33
66113;BMP280;52893;52.870;5.822;2024-03-02T00:10:26;99741.72;;;9.32
66113;BMP280;52893;52.870;5.822;2024-03-02T00:12:57;99732.19;;;9.26
66113;BMP280;52893;52.870;5.822;2024-03-02T00:15:39;99732.41;;;9.21
66113;BMP280;52893;52.870;5.822;2024-03-02T00:18:08;99719.69;;;9.25
66113;BMP280;52893;52.870;5.822;2024-03-02T00:20:37;99736.25;;;9.20
66113;BMP280;52893;52.870;5.822;2024-03-02T00:23:06;99679.09;;;8.96
66113;BMP280;52893;52.870;5.822;2024-03-02T00:25:41;99715.75;;;9.23
66113;BMP280;52893;52.870;5.822;2024-03-02T00:28:17;99718.91;;;9.25
66113;BMP280;52893;52.870;5.822;2024-03-02T00:30:57;99723.91;;;9.23
66113;BMP280;52893;52.870;5.822;2024-03-02T00:33:27;99706.19;;;9.29
66113;BMP280;52893;52.870;5.822;2024-03-02T00:35:56;99701.75;;;9.24
66113;BMP280;52893;52.870;5.822;2024-03-02T00:38:27;99713.81;;;9.23
66113;BMP280;52893;52.870;5.822;2024-03-02T00:40:56;99671.28;;;9.07
66113;BMP280;52893;52.870;5.822;2024-03-02T00:43:43;99690.31;;;9.19
66113;BMP280;52893;52.870;5.822;2024-03-02T00:46:11;99704.63;;;9.16
66113;BMP280;52893;52.870;5.822;2024-03-02T00:48:40;99688.59;;;9.14
66113;BMP280;52893;52.870;5.822;2024-03-02T00:51:09;99699.72;;;9.21
66113;BMP280;52893;52.870;5.822;2024-03-02T00:53:38;99702.78;;;9.20
66113;BMP280;52893;52.870;5.822;2024-03-02T00:56:09;99704.84;;;9.23
66113;BMP280;52893;52.870;5.822;2024-03-02T00:58:37;99697.47;;;9.23
66113;BMP280;52893;52.870;5.822;2024-03-02T01:01:05;99696.22;;;9.21
66113;BMP280;52893;52.870;5.822;2024-03-02T01:03:33;99706.88;;;9.26
66113;BMP280;52893;52.870;5.822;2024-03-02T01:06:00;99713.13;;;9.26
66113;BMP280;52893;52.870;5.822;2024-03-02T01:08:28;99698.00;;;9.29
66113;BMP280;52893;52.870;5.822;2024-03-02T01:10:58;99707.66;;;9.26
66113;BMP280;52893;52.870;5.822;2024-03-02T01:13:25;99713.81;;;9.23
66113;BMP280;52893;52.870;5.822;2024-03-02T01:15:53;99724.25;;;9.21
66113;BMP280;52893;52.870;5.822;2024-03-02T01:18:20;99723.91;;;9.23
66113;BMP280;52893;52.870;5.822;2024-03-02T01:20:48;99722.31;;;9.22
66113;BMP280;52893;52.870;5.822;2024-03-02T01:23:18;99728.09;;;9.20
66113;BMP280;52893;52.870;5.822;2024-03-02T01:25:45;99727.97;;;9.17
66113;BMP280;52893;52.870;5.822;2024-03-02T01:28:14;99728.78;;;9.17
66113;BMP280;52893;52.870;5.822;2024-03-02T01:30:42;99724.47;;;9.16
66113;BMP280;52893;52.870;5.822;2024-03-02T01:33:09;99719.72;;;9.13
66113;BMP280;52893;52.870;5.822;2024-03-02T01:35:37;99731.50;;;9.17
66113;BMP280;52893;52.870;5.822;2024-03-02T01:38:04;99729.22;;;9.19
66113;BMP280;52893;52.870;5.822;2024-03-02T01:40:34;99714.28;;;9.13
66113;BMP280;52893;52.870;5.822;2024-03-02T01:43:01;99729.69;;;9.21
66113;BMP280;52893;52.870;5.822;2024-03-02T01:45:30;99737.38;;;9.19
66113;BMP280;52893;52.870;5.822;2024-03-02T01:47:58;99737.06;;;9.21
66113;BMP280;52893;52.870;5.822;2024-03-02T01:50:26;99745.22;;;9.21
66113;BMP280;52893;52.870;5.822;2024-03-02T01:52:55;99735.78;;;9.18
66113;BMP280;52893;52.870;5.822;2024-03-02T01:55:22;99751.00;;;9.31
66113;BMP280;52893;52.870;5.822;2024-03-02T01:57:50;99751.34;;;9.30
66113;BMP280;52893;52.870;5.822;2024-03-02T02:00:18;99743.75;;;9.23
66113;BMP280;52893;52.870;5.822;2024-03-02T02:02:48;99757.34;;;9.35
66113;BMP280;52893;52.870;5.822;2024-03-02T02:05:16;99767.22;;;9.40
66113;BMP280;52893;52.870;5.822;2024-03-02T02:07:43;99759.06;;;9.40
66113;BMP280;52893;52.870;5.822;2024-03-02T02:10:11;99778.00;;;9.49
66113;BMP280;52893;52.870;5.822;2024-03-02T02:12:39;99757.00;;;9.49
66113;BMP280;52893;52.870;5.822;2024-03-02T02:15:22;99753.47;;;9.49
66113;BMP280;52893;52.870;5.822;2024-03-02T02:17:50;99750.44;;;9.50
66113;BMP280;52893;52.870;5.822;2024-03-02T02:20:18;99753.94;;;9.51
66113;BMP280;52893;52.870;5.822;2024-03-02T02:22:58;99753.47;;;9.49
66113;BMP280;52893;52.870;5.822;2024-03-02T02:25:25;99739.53;;;9.50
66113;BMP280;52893;52.870;5.822;2024-03-02T02:27:53;99742.69;;;9.52
66113;BMP280;52893;52.870;5.822;2024-03-02T02:30:22;99719.91;;;9.45
66113;BMP280;52893;52.870;5.822;2024-03-02T02:32:49;99717.41;;;9.52
66113;BMP280;52893;52.870;5.822;2024-03-02T02:35:17;99711.97;;;9.52
66113;BMP280;52893;52.870;5.822;2024-03-02T02:37:45;99706.50;;;9.52
66113;BMP280;52893;52.870;5.822;2024-03-02T02:40:15;99700.28;;;9.51
66113;BMP280;52893;52.870;5.822;2024-03-02T02:42:44;99700.13;;;9.48
66113;BMP280;52893;52.870;5.822;2024-03-02T02:45:12;99704.78;;;9.47
66113;BMP280;52893;52.870;5.822;2024-03-02T02:47:40;99706.28;;;9.45
66113;BMP280;52893;52.870;5.822;2024-03-02T02:50:09;99710.03;;;9.40
66113;BMP280;52893;52.870;5.822;2024-03-02T02:52:38;99675.78;;;9.15
66113;BMP280;52893;52.870;5.822;2024-03-02T02:55:07;99711.41;;;9.34
66113;BMP280;52893;52.870;5.822;2024-03-02T02:57:37;99712.66;;;9.37
66113;BMP280;52893;52.870;5.822;2024-03-02T03:00:06;99721.72;;;9.41
66113;BMP280;52893;52.870;5.822;2024-03-02T03:02:40;99726.84;;;9.42
66113;BMP280;52893;52.870;5.822;2024-03-02T03:05:09;99703.78;;;9.40
66113;BMP280;52893;52.870;5.822;2024-03-02T03:07:36;99725.69;;;9.43
66113;BMP280;52893;52.870;5.822;2024-03-02T03:10:04;99730.31;;;9.43
66113;BMP280;52893;52.870;5.822;2024-03-02T03:12:32;99740.78;;;9.41
66113;BMP280;52893;52.870;5.822;2024-03-02T03:15:01;99744.19;;;9.38
66113;BMP280;52893;52.870;5.822;2024-03-02T03:17:30;99748.06;;;9.37
66113;BMP280;52893;52.870;5.822;2024-03-02T03:19:57;99748.72;;;9.33
66113;BMP280;52893;52.870;5.822;2024-03-02T03:22:25;99742.38;;;9.29
66113;BMP280;52893;52.870;5.822;2024-03-02T03:24:52;99744.44;;;9.32
66113;BMP280;52893;52.870;5.822;2024-03-02T03:27:19;99754.84;;;9.30
66113;BMP280;52893;52.870;5.822;2024-03-02T03:29:46;99764.84;;;9.26
66113;BMP280;52893;52.870;5.822;2024-03-02T03:32:15;99768.03;;;9.16
66113;BMP280;52893;52.870;5.822;2024-03-02T03:34:43;99764.06;;;9.14
66113;BMP280;52893;52.870;5.822;2024-03-02T03:37:11;99764.84;;;9.02
66113;BMP280;52893;52.870;5.822;2024-03-02T03:39:38;99769.59;;;8.93
66113;BMP280;52893;52.870;5.822;2024-03-02T03:42:06;99764.63;;;8.95
66113;BMP280;52893;52.870;5.822;2024-03-02T03:44:33;99767.78;;;8.85
66113;BMP280;52893;52.870;5.822;2024-03-02T03:47:01;99778.19;;;8.83
66113;BMP280;52893;52.870;5.822;2024-03-02T03:49:30;99779.63;;;8.80
66113;BMP280;52893;52.870;5.822;2024-03-02T03:51:57;99774.00;;;8.85
66113;BMP280;52893;52.870;5.822;2024-03-02T03:54:25;99771.16;;;8.82
66113;BMP280;52893;52.870;5.822;2024-03-02T03:56:52;99787.03;;;8.80
66113;BMP280;52893;52.870;5.822;2024-03-02T03:59:19;99773.75;;;8.66
66113;BMP280;52893;52.870;5.822;2024-03-02T04:01:46;99773.47;;;8.59
66113;BMP280;52893;52.870;5.822;2024-03-02T04:04:14;99777.31;;;8.58
66113;BMP280;52893;52.870;5.822;2024-03-02T04:06:43;99777.84;;;8.52
66113;BMP280;52893;52.870;5.822;2024-03-02T04:09:10;99760.84;;;8.42
66113;BMP280;52893;52.870;5.822;2024-03-02T04:11:37;99787.84;;;8.48
66113;BMP280;52893;52.870;5.822;2024-03-02T04:14:05;99791.69;;;8.46
66113;BMP280;52893;52.870;5.822;2024-03-02T04:16:33;99778.97;;;8.38
66113;BMP280;52893;52.870;5.822;2024-03-02T04:19:00;99782.53;;;8.30
66113;BMP280;52893;52.870;5.822;2024-03-02T04:21:27;99772.50;;;8.10
66113;BMP280;52893;52.870;5.822;2024-03-02T04:23:56;99770.13;;;8.09
66113;BMP280;52893;52.870;5.822;2024-03-02T04:26:25;99781.09;;;8.12
66113;BMP280;52893;52.870;5.822;2024-03-02T04:28:52;99787.00;;;8.14
66113;BMP280;52893;52.870;5.822;2024-03-02T04:31:20;99795.03;;;8.11
66113;BMP280;52893;52.870;5.822;2024-03-02T04:33:47;99802.84;;;8.12
66113;BMP280;52893;52.870;5.822;2024-03-02T04:36:15;99801.00;;;8.04
66113;BMP280;52893;52.870;5.822;2024-03-02T04:38:42;99804.19;;;8.06
66113;BMP280;52893;52.870;5.822;2024-03-02T04:41:11;99799.38;;;8.03
66113;BMP280;52893;52.870;5.822;2024-03-02T04:43:38;99792.09;;;7.95
66113;BMP280;52893;52.870;5.822;2024-03-02T04:46:05;99816.38;;;8.00
66113;BMP280;52893;52.870;5.822;2024-03-02T04:48:33;99822.59;;;8.00
66113;BMP280;52893;52.870;5.822;2024-03-02T04:51:01;99821.66;;;7.96
66113;BMP280;52893;52.870;5.822;2024-03-02T04:53:28;99827.44;;;7.95
66113;BMP280;52893;52.870;5.822;2024-03-02T04:55:55;99824.72;;;7.95
66113;BMP280;52893;52.870;5.822;2024-03-02T04:58:47;99825.69;;;7.90
66113;BMP280;52893;52.870;5.822;2024-03-02T05:01:14;99830.66;;;7.88
66113;BMP280;52893;52.870;5.822;2024-03-02T05:03:43;99833.72;;;7.87
66113;BMP280;52893;52.870;5.822;2024-03-02T05:06:11;99828.94;;;7.84
66113;BMP280;52893;52.870;5.822;2024-03-02T05:08:38;99830.06;;;7.83
66113;BMP280;52893;52.870;5.822;2024-03-02T05:11:05;99828.47;;;7.82
66113;BMP280;52893;52.870;5.822;2024-03-02T05:13:48;99828.63;;;7.77
66113;BMP280;52893;52.870;5.822;2024-03-02T05:16:15;99822.31;;;7.73
66113;BMP280;52893;52.870;5.822;2024-03-02T05:18:42;99818.84;;;7.64
66113;BMP280;52893;52.870;5.822;2024-03-02T05:21:10;99830.63;;;7.68
66113;BMP280;52893;52.870;5.822;2024-03-02T05:23:38;99827.09;;;7.67
66113;BMP280;52893;52.870;5.822;2024-03-02T05:26:06;99831.28;;;7.65
66113;BMP280;52893;52.870;5.822;2024-03-02T05:28:34;99828.13;;;7.63
66113;BMP280;52893;52.870;5.822;2024-03-02T05:31:03;99827.47;;;7.57
66113;BMP280;52893;52.870;5.822;2024-03-02T05:33:31;99832.09;;;7.56
66113;BMP280;52893;52.870;5.822;2024-03-02T05:35:59;99826.72;;;7.48
66113;BMP280;52893;52.870;5.822;2024-03-02T05:38:28;99844.44;;;7.45
66113;BMP280;52893;52.870;5.822;2024-03-02T05:40:55;99845.78;;;7.39
66113;BMP280;52893;52.870;5.822;2024-03-02T05:43:22;99846.25;;;7.33
66113;BMP280;52893;52.870;5.822;2024-03-02T05:45:49;99829.41;;;7.18
66113;BMP280;52893;52.870;5.822;2024-03-02T05:48:18;99847.72;;;7.30
66113;BMP280;52893;52.870;5.822;2024-03-02T05:50:45;99831.94;;;7.24
66113;BMP280;52893;52.870;5.822;2024-03-02T05:53:13;99850.91;;;7.32
66113;BMP280;52893;52.870;5.822;2024-03-02T05:55:41;99850.09;;;7.32
66113;BMP280;52893;52.870;5.822;2024-03-02T05:58:09;99859.53;;;7.34
66113;BMP280;52893;52.870;5.822;2024-03-02T06:00:48;99853.16;;;7.30
66113;BMP280;52893;52.870;5.822;2024-03-02T06:03:15;99860.31;;;7.35
66113;BMP280;52893;52.870;5.822;2024-03-02T06:05:45;99852.50;;;7.33
66113;BMP280;52893;52.870;5.822;2024-03-02T06:08:15;99867.84;;;7.29
66113;BMP280;52893;52.870;5.822;2024-03-02T06:10:43;99860.81;;;7.19
66113;BMP280;52893;52.870;5.822;2024-03-02T06:13:10;99864.34;;;7.20
66113;BMP280;52893;52.870;5.822;2024-03-02T06:15:37;99867.25;;;7.15
66113;BMP280;52893;52.870;5.822;2024-03-02T06:18:05;99868.19;;;7.10
66113;BMP280;52893;52.870;5.822;2024-03-02T06:20:33;99866.78;;;7.04
66113;BMP280;52893;52.870;5.822;2024-03-02T06:23:02;99866.13;;;6.99
66113;BMP280;52893;52.870;5.822;2024-03-02T06:25:30;99869.50;;;6.96
66113;BMP280;52893;52.870;5.822;2024-03-02T06:27:57;99865.03;;;6.83
66113;BMP280;52893;52.870;5.822;2024-03-02T06:30:24;99879.09;;;6.85
66113;BMP280;52893;52.870;5.822;2024-03-02T06:32:52;99875.88;;;6.83
66113;BMP280;52893;52.870;5.822;2024-03-02T06:35:19;99887.38;;;6.80
66113;BMP280;52893;52.870;5.822;2024-03-02T06:37:46;99892.66;;;6.76
66113;BMP280;52893;52.870;5.822;2024-03-02T06:40:15;99887.06;;;6.72
66113;BMP280;52893;52.870;5.822;2024-03-02T06:42:42;99879.91;;;6.68
66113;BMP280;52893;52.870;5.822;2024-03-02T06:45:10;99895.06;;;6.69
66113;BMP280;52893;52.870;5.822;2024-03-02T06:47:37;99899.34;;;6.70
66113;BMP280;52893;52.870;5.822;2024-03-02T06:50:05;99899.69;;;6.68
66113;BMP280;52893;52.870;5.822;2024-03-02T06:52:33;99907.03;;;6.68
66113;BMP280;52893;52.870;5.822;2024-03-02T06:55:00;99897.28;;;6.58
66113;BMP280;52893;52.870;5.822;2024-03-02T06:57:29;99909.88;;;6.63
66113;BMP280;52893;52.870;5.822;2024-03-02T06:59:56;99912.78;;;6.66
66113;BMP280;52893;52.870;5.822;2024-03-02T07:02:24;99916.09;;;6.63
66113;BMP280;52893;52.870;5.822;2024-03-02T07:04:52;99911.16;;;6.57
66113;BMP280;52893;52.870;5.822;2024-03-02T07:07:20;99918.00;;;6.54
66113;BMP280;52893;52.870;5.822;2024-03-02T07:09:47;99919.78;;;6.50
66113;BMP280;52893;52.870;5.822;2024-03-02T07:12:14;99919.28;;;6.48
66113;BMP280;52893;52.870;5.822;2024-03-02T07:14:43;99919.91;;;6.45
66113;BMP280;52893;52.870;5.822;2024-03-02T07:17:37;99913.84;;;6.48
66113;BMP280;52893;52.870;5.822;2024-03-02T07:20:05;99911.31;;;6.52
66113;BMP280;52893;52.870;5.822;2024-03-02T07:22:33;99912.59;;;6.54
66113;BMP280;52893;52.870;5.822;2024-03-02T07:25:00;99913.53;;;6.58
66113;BMP280;52893;52.870;5.822;2024-03-02T07:27:28;99911.78;;;6.62
66113;BMP280;52893;52.870;5.822;2024-03-02T07:29:59;99917.19;;;6.71
66113;BMP280;52893;52.870;5.822;2024-03-02T07:32:26;99832.19;;;6.24
66113;BMP280;52893;52.870;5.822;2024-03-02T07:34:53;99915.28;;;6.89
66113;BMP280;52893;52.870;5.822;2024-03-02T07:37:21;99911.97;;;6.92
66113;BMP280;52893;52.870;5.822;2024-03-02T07:39:49;99831.88;;;6.51
66113;BMP280;52893;52.870;5.822;2024-03-02T07:42:16;99901.56;;;7.02
66113;BMP280;52893;52.870;5.822;2024-03-02T07:44:44;99938.41;;;7.29
66113;BMP280;52893;52.870;5.822;2024-03-02T07:47:12;99946.84;;;7.36
66113;BMP280;52893;52.870;5.822;2024-03-02T07:49:40;99917.31;;;7.26
66113;BMP280;52893;52.870;5.822;2024-03-02T07:52:07;99942.97;;;7.63
66113;BMP280;52893;52.870;5.822;2024-03-02T07:54:35;99944.81;;;7.80
66113;BMP280;52893;52.870;5.822;2024-03-02T07:57:02;99942.81;;;7.97
66113;BMP280;52893;52.870;5.822;2024-03-02T07:59:30;99909.13;;;7.90
66113;BMP280;52893;52.870;5.822;2024-03-02T08:01:57;99954.75;;;8.34
66113;BMP280;52893;52.870;5.822;2024-03-02T08:04:26;99944.63;;;8.43
66113;BMP280;52893;52.870;5.822;2024-03-02T08:06:53;99963.81;;;8.68
66113;BMP280;52893;52.870;5.822;2024-03-02T08:09:21;99952.53;;;8.78
66113;BMP280;52893;52.870;5.822;2024-03-02T08:11:48;99961.22;;;8.92
66113;BMP280;52893;52.870;5.822;2024-03-02T08:14:16;99985.34;;;9.14
66113;BMP280;52893;52.870;5.822;2024-03-02T08:16:44;99971.50;;;9.19
66113;BMP280;52893;52.870;5.822;2024-03-02T08:19:11;99986.09;;;9.35
66113;BMP280;52893;52.870;5.822;2024-03-02T08:21:40;99988.75;;;9.44
66113;BMP280;52893;52.870;5.822;2024-03-02T08:24:08;99985.38;;;9.59
66113;BMP280;52893;52.870;5.822;2024-03-02T08:26:35;99991.19;;;9.70
66113;BMP280;52893;52.870;5.822;2024-03-02T08:29:02;99995.06;;;9.81
66113;BMP280;52893;52.870;5.822;2024-03-02T08:31:30;99998.56;;;9.69
66113;BMP280;52893;52.870;5.822;2024-03-02T08:33:57;100006.84;;;9.73
66113;BMP280;52893;52.870;5.822;2024-03-02T08:36:26;99996.38;;;9.51
66113;BMP280;52893;52.870;5.822;2024-03-02T08:38:56;99992.75;;;9.59
66113;BMP280;52893;52.870;5.822;2024-03-02T08:41:24;100011.16;;;9.74
66113;BMP280;52893;52.870;5.822;2024-03-02T08:43:51;99968.09;;;9.55
66113;BMP280;52893;52.870;5.822;2024-03-02T08:46:18;100007.63;;;9.73
66113;BMP280;52893;52.870;5.822;2024-03-02T08:48:46;100004.72;;;9.78
66113;BMP280;52893;52.870;5.822;2024-03-02T08:51:14;100001.41;;;9.73
66113;BMP280;52893;52.870;5.822;2024-03-02T08:53:41;100008.31;;;9.82
66113;BMP280;52893;52.870;5.822;2024-03-02T08:56:11;99994.38;;;9.84
66113;BMP280;52893;52.870;5.822;2024-03-02T08:58:39;100005.31;;;10.08
66113;BMP280;52893;52.870;5.822;2024-03-02T09:01:06;100009.84;;;10.16
66113;BMP280;52893;52.870;5.822;2024-03-02T09:03:34;100000.53;;;10.17
66113;BMP280;52893;52.870;5.822;2024-03-02T09:06:01;100010.19;;;10.27
66113;BMP280;52893;52.870;5.822;2024-03-02T09:08:29;100013.66;;;10.52
66113;BMP280;52893;52.870;5.822;2024-03-02T09:10:56;100005.47;;;10.52
66113;BMP280;52893;52.870;5.822;2024-03-02T09:13:25;100012.94;;;10.67
66113;BMP280;52893;52.870;5.822;2024-03-02T09:15:54;100012.00;;;10.87
66113;BMP280;52893;52.870;5.822;2024-03-02T09:18:22;99970.03;;;10.52
66113;BMP280;52893;52.870;5.822;2024-03-02T09:20:49;100010.47;;;11.02
66113;BMP280;52893;52.870;5.822;2024-03-02T09:23:16;100017.31;;;11.24
66113;BMP280;52893;52.870;5.822;2024-03-02T09:25:44;100022.91;;;11.43
66113;BMP280;52893;52.870;5.822;2024-03-02T09:28:11;100029.09;;;11.55
66113;BMP280;52893;52.870;5.822;2024-03-02T09:30:40;100011.41;;;11.65
66113;BMP280;52893;52.870;5.822;2024-03-02T09:33:07;100016.94;;;11.69
66113;BMP280;52893;52.870;5.822;2024-03-02T09:35:35;100016.16;;;11.68
66113;BMP280;52893;52.870;5.822;2024-03-02T09:38:02;100012.53;;;11.95
66113;BMP280;52893;52.870;5.822;2024-03-02T09:40:30;100016.50;;;12.14
66113;BMP280;52893;52.870;5.822;2024-03-02T09:42:58;99982.09;;;11.81
66113;BMP280;52893;52.870;5.822;2024-03-02T09:45:26;100014.47;;;11.79
66113;BMP280;52893;52.870;5.822;2024-03-02T09:47:55;100010.03;;;12.22
66113;BMP280;52893;52.870;5.822;2024-03-02T09:50:22;100011.31;;;12.43
66113;BMP280;52893;52.870;5.822;2024-03-02T09:52:50;100009.03;;;12.84
66113;BMP280;52893;52.870;5.822;2024-03-02T09:55:18;100018.03;;;13.03
66113;BMP280;52893;52.870;5.822;2024-03-02T09:57:46;100014.34;;;13.15
66113;BMP280;52893;52.870;5.822;2024-03-02T10:00:15;100029.13;;;13.11
66113;BMP280;52893;52.870;5.822;2024-03-02T10:02:43;100036.94;;;13.09
66113;BMP280;52893;52.870;5.822;2024-03-02T10:05:11;100017.75;;;13.09
66113;BMP280;52893;52.870;5.822;2024-03-02T10:07:39;100030.97;;;13.26
66113;BMP280;52893;52.870;5.822;2024-03-02T10:10:13;100036.59;;;13.33
66113;BMP280;52893;52.870;5.822;2024-03-02T10:12:40;100036.72;;;13.40
66113;BMP280;52893;52.870;5.822;2024-03-02T10:15:08;100029.84;;;13.27
66113;BMP280;52893;52.870;5.822;2024-03-02T10:17:36;100030.78;;;13.38
66113;BMP280;52893;52.870;5.822;2024-03-02T10:20:25;100030.63;;;13.50
66113;BMP280;52893;52.870;5.822;2024-03-02T10:22:55;100037.53;;;13.63
66113;BMP280;52893;52.870;5.822;2024-03-02T10:25:29;100022.59;;;13.83
66113;BMP280;52893;52.870;5.822;2024-03-02T10:27:58;100036.09;;;13.95
66113;BMP280;52893;52.870;5.822;2024-03-02T10:30:26;100040.84;;;13.76
66113;BMP280;52893;52.870;5.822;2024-03-02T10:32:54;100031.75;;;13.94
66113;BMP280;52893;52.870;5.822;2024-03-02T10:35:23;100014.66;;;13.78
66113;BMP280;52893;52.870;5.822;2024-03-02T10:37:52;100024.31;;;13.95
66113;BMP280;52893;52.870;5.822;2024-03-02T10:40:21;100002.72;;;13.67
66113;BMP280;52893;52.870;5.822;2024-03-02T10:42:50;100020.91;;;14.01
66113;BMP280;52893;52.870;5.822;2024-03-02T10:45:19;100034.38;;;14.10
66113;BMP280;52893;52.870;5.822;2024-03-02T10:47:47;100025.47;;;14.17
66113;BMP280;52893;52.870;5.822;2024-03-02T10:50:14;100023.75;;;14.35
66113;BMP280;52893;52.870;5.822;2024-03-02T10:52:43;100022.91;;;14.61
66113;BMP280;52893;52.870;5.822;2024-03-02T10:55:10;100028.97;;;14.73
66113;BMP280;52893;52.870;5.822;2024-03-02T10:57:42;100026.97;;;15.04
66113;BMP280;52893;52.870;5.822;2024-03-02T11:00:12;100029.53;;;15.23
66113;BMP280;52893;52.870;5.822;2024-03-02T11:02:46;100021.03;;;15.01
66113;BMP280;52893;52.870;5.822;2024-03-02T11:05:27;100019.97;;;15.10
66113;BMP280;52893;52.870;5.822;2024-03-02T11:08:00;100013.94;;;15.37
66113;BMP280;52893;52.870;5.822;2024-03-02T11:10:34;100020.16;;;15.71
66113;BMP280;52893;52.870;5.822;2024-03-02T11:13:02;100015.16;;;15.40
66113;BMP280;52893;52.870;5.822;2024-03-02T11:15:34;100008.88;;;15.39
66113;BMP280;52893;52.870;5.822;2024-03-02T11:18:04;100014.50;;;15.57
66113;BMP280;52893;52.870;5.822;2024-03-02T11:20:36;100014.16;;;15.62
66113;BMP280;52893;52.870;5.822;2024-03-02T11:23:08;100016.16;;;15.65
66113;BMP280;52893;52.870;5.822;2024-03-02T11:25:35;99998.94;;;15.75
66113;BMP280;52893;52.870;5.822;2024-03-02T11:28:04;99999.03;;;15.89
66113;BMP280;52893;52.870;5.822;2024-03-02T11:30:51;100010.28;;;16.28
66113;BMP280;52893;52.870;5.822;2024-03-02T11:33:25;100013.50;;;16.41
66113;BMP280;52893;52.870;5.822;2024-03-02T11:35:57;100013.22;;;16.74
66113;BMP280;52893;52.870;5.822;2024-03-02T11:38:33;100018.41;;;17.00
66113;BMP280;52893;52.870;5.822;2024-03-02T11:41:01;100010.59;;;17.13
66113;BMP280;52893;52.870;5.822;2024-03-02T11:43:29;100013.72;;;17.08
66113;BMP280;52893;52.870;5.822;2024-03-02T11:45:59;100012.09;;;16.96
66113;BMP280;52893;52.870;5.822;2024-03-02T11:48:30;100013.69;;;17.01
66113;BMP280;52893;52.870;5.822;2024-03-02T11:50:59;99997.97;;;17.09
66113;BMP280;52893;52.870;5.822;2024-03-02T11:53:27;100003.91;;;17.32
66113;BMP280;52893;52.870;5.822;2024-03-02T11:55:58;99968.81;;;17.43
66113;BMP280;52893;52.870;5.822;2024-03-02T11:58:27;100005.06;;;17.48
66113;BMP280;52893;52.870;5.822;2024-03-02T12:00:55;100012.16;;;17.28
66113;BMP280;52893;52.870;5.822;2024-03-02T12:03:25;99993.16;;;16.81
66113;BMP280;52893;52.870;5.822;2024-03-02T12:05:54;100010.28;;;16.25
66113;BMP280;52893;52.870;5.822;2024-03-02T12:08:22;100007.50;;;15.63
66113;BMP280;52893;52.870;5.822;2024-03-02T12:10:58;99987.41;;;15.12
66113;BMP280;52893;52.870;5.822;2024-03-02T12:13:26;100004.72;;;14.79
66113;BMP280;52893;52.870;5.822;2024-03-02T12:15:54;100001.50;;;14.43
66113;BMP280;52893;52.870;5.822;2024-03-02T12:18:22;99994.16;;;14.21
66113;BMP280;52893;52.870;5.822;2024-03-02T12:20:50;99994.63;;;14.00
66113;BMP280;52893;52.870;5.822;2024-03-02T12:23:22;99999.91;;;13.86
66113;BMP280;52893;52.870;5.822;2024-03-02T12:25:50;99999.34;;;13.74
66113;BMP280;52893;52.870;5.822;2024-03-02T12:28:19;99992.34;;;13.57
66113;BMP280;52893;52.870;5.822;2024-03-02T12:30:46;99993.72;;;13.44
66113;BMP280;52893;52.870;5.822;2024-03-02T12:33:14;100003.69;;;13.33
66113;BMP280;52893;52.870;5.822;2024-03-02T12:35:42;99994.22;;;13.27
66113;BMP280;52893;52.870;5.822;2024-03-02T12:38:09;99997.25;;;13.22
66113;BMP280;52893;52.870;5.822;2024-03-02T12:40:38;99989.34;;;13.17
66113;BMP280;52893;52.870;5.822;2024-03-02T12:43:05;99985.84;;;13.00
66113;BMP280;52893;52.870;5.822;2024-03-02T12:45:35;99958.72;;;12.73
66113;BMP280;52893;52.870;5.822;2024-03-02T12:48:04;99972.22;;;12.81
66113;BMP280;52893;52.870;5.822;2024-03-02T12:50:32;99982.16;;;12.70
66113;BMP280;52893;52.870;5.822;2024-03-02T12:53:00;99981.56;;;12.61
66113;BMP280;52893;52.870;5.822;2024-03-02T12:55:28;99985.00;;;12.58
66113;BMP280;52893;52.870;5.822;2024-03-02T12:57:55;99988.81;;;12.53
66113;BMP280;52893;52.870;5.822;2024-03-02T13:00:23;99975.94;;;12.54
66113;BMP280;52893;52.870;5.822;2024-03-02T13:02:51;99979.84;;;12.53
66113;BMP280;52893;52.870;5.822;2024-03-02T13:05:19;99970.84;;;12.52
66113;BMP280;52893;52.870;5.822;2024-03-02T13:07:47;99978.66;;;12.54
66113;BMP280;52893;52.870;5.822;2024-03-02T13:10:14;99975.72;;;12.63
66113;BMP280;52893;52.870;5.822;2024-03-02T13:12:42;99974.06;;;12.58
66113;BMP280;52893;52.870;5.822;2024-03-02T13:15:09;99976.09;;;12.61
66113;BMP280;52893;52.870;5.822;2024-03-02T13:17:38;99975.25;;;12.57
66113;BMP280;52893;52.870;5.822;2024-03-02T13:20:08;99957.63;;;12.58
66113;BMP280;52893;52.870;5.822;2024-03-02T13:22:36;99972.63;;;12.64
66113;BMP280;52893;52.870;5.822;2024-03-02T13:25:05;99970.25;;;12.63
66113;BMP280;52893;52.870;5.822;2024-03-02T13:27:34;99960.69;;;12.53
66113;BMP280;52893;52.870;5.822;2024-03-02T13:30:02;99967.03;;;12.57
66113;BMP280;52893;52.870;5.822;2024-03-02T13:32:30;99966.00;;;12.65
66113;BMP280;52893;52.870;5.822;2024-03-02T13:34:57;99960.16;;;12.67
66113;BMP280;52893;52.870;5.822;2024-03-02T13:37:26;99960.66;;;12.72
66113;BMP280;52893;52.870;5.822;2024-03-02T13:39:53;99956.47;;;12.78
66113;BMP280;52893;52.870;5.822;2024-03-02T13:42:20;99953.09;;;12.85
66113;BMP280;52893;52.870;5.822;2024-03-02T13:44:48;99959.81;;;12.87
66113;BMP280;52893;52.870;5.822;2024-03-02T13:47:17;99949.69;;;12.91
66113;BMP280;52893;52.870;5.822;2024-03-02T13:49:44;99945.94;;;12.99
66113;BMP280;52893;52.870;5.822;2024-03-02T13:52:13;99946.06;;;13.07
66113;BMP280;52893;52.870;5.822;2024-03-02T13:54:43;99944.19;;;13.11
66113;BMP280;52893;52.870;5.822;2024-03-02T13:57:11;99949.38;;;13.16
66113;BMP280;52893;52.870;5.822;2024-03-02T13:59:39;99938.06;;;13.17
66113;BMP280;52893;52.870;5.822;2024-03-02T14:02:07;99942.44;;;13.22
66113;BMP280;52893;52.870;5.822;2024-03-02T14:04:35;99952.59;;;13.21
66113;BMP280;52893;52.870;5.822;2024-03-02T14:07:03;99950.28;;;13.23
66113;BMP280;52893;52.870;5.822;2024-03-02T14:09:32;99929.06;;;13.17
66113;BMP280;52893;52.870;5.822;2024-03-02T14:12:02;99935.31;;;13.17
66113;BMP280;52893;52.870;5.822;2024-03-02T14:14:29;99935.34;;;13.21
66113;BMP280;52893;52.870;5.822;2024-03-02T14:16:57;99938.09;;;13.21
66113;BMP280;52893;52.870;5.822;2024-03-02T14:19:26;99936.22;;;13.25
66113;BMP280;52893;52.870;5.822;2024-03-02T14:21:54;99942.44;;;13.22